createdAt,value
2023-01-15T00:00:00.627Z,93.63
2023-01-15T00:01:03.531Z,92.56
2023-01-15T00:02:05.710Z,92.68
2023-01-15T00:03:07.138Z,93.26
2023-01-15T00:04:09.184Z,92.42
2023-01-15T00:05:10.540Z,92.78
2023-01-15T00:06:11.967Z,92.29
2023-01-15T00:07:13.396Z,92.47
2023-01-15T00:08:14.967Z,93.00
2023-01-15T00:09:16.545Z,92.60
2023-01-15T00:10:18.080Z,92.54
2023-01-15T00:11:20.335Z,91.86
2023-01-15T00:12:21.761Z,91.75
2023-01-15T00:13:23.192Z,92.08
2023-01-15T00:14:24.620Z,91.96
2023-01-15T00:15:26.130Z,92.42
2023-01-15T00:16:28.033Z,92.33
2023-01-15T00:17:29.467Z,92.29
2023-01-15T00:18:30.926Z,91.89
2023-01-15T00:19:32.329Z,92.45
2023-01-15T00:20:33.749Z,92.52
2023-01-15T00:21:35.198Z,92.11
2023-01-15T00:22:36.640Z,91.36
2023-01-15T00:23:56.988Z,92.43
2023-01-15T00:25:16.807Z,92.16
2023-01-15T00:26:39.308Z,91.10
2023-01-15T00:27:40.805Z,92.15
2023-01-15T00:28:42.727Z,91.25
2023-01-15T00:29:44.201Z,92.46
2023-01-15T00:30:45.656Z,91.90
2023-01-15T00:31:55.314Z,91.96
2023-01-15T00:32:58.753Z,91.58
2023-01-15T00:34:00.200Z,91.12
2023-01-15T00:35:01.654Z,92.50
2023-01-15T00:36:03.113Z,91.86
2023-01-15T00:37:04.903Z,91.53
2023-01-15T00:38:06.310Z,91.88
2023-01-15T00:39:07.715Z,91.63
2023-01-15T00:40:10.236Z,91.21
2023-01-15T00:41:11.702Z,92.36
2023-01-15T00:42:13.464Z,92.21
2023-01-15T00:43:14.889Z,91.48
2023-01-15T00:44:17.021Z,92.02
2023-01-15T00:45:18.439Z,91.74
2023-01-15T00:46:20.458Z,92.19
2023-01-15T00:47:21.935Z,92.08
2023-01-15T00:48:23.421Z,90.71
2023-01-15T00:49:24.841Z,91.11
2023-01-15T00:50:26.255Z,91.69
2023-01-15T00:51:31.105Z,91.57
2023-01-15T00:52:32.670Z,91.14
2023-01-15T00:53:34.054Z,91.54
2023-01-15T00:54:35.561Z,90.51
2023-01-15T00:55:36.983Z,90.83
2023-01-15T00:56:38.442Z,91.17
2023-01-15T00:57:39.883Z,90.58
2023-01-15T00:58:41.399Z,91.11
2023-01-15T00:59:42.814Z,90.53
2023-01-15T01:00:44.287Z,90.93
2023-01-15T01:01:45.823Z,90.11
2023-01-15T01:02:47.284Z,90.72
2023-01-15T01:03:50.158Z,91.04
2023-01-15T01:04:51.608Z,89.48
2023-01-15T01:05:53.029Z,89.59
2023-01-15T01:06:54.538Z,89.54
2023-01-15T01:07:55.956Z,89.66
2023-01-15T01:08:57.472Z,90.46
2023-01-15T01:09:58.944Z,90.47
2023-01-15T01:11:03.382Z,90.64
2023-01-15T01:12:05.779Z,89.89
2023-01-15T01:13:07.193Z,89.57
2023-01-15T01:14:10.923Z,89.96
2023-01-15T01:15:12.412Z,90.83
2023-01-15T01:16:33.473Z,89.29
2023-01-15T01:17:37.160Z,89.48
2023-01-15T01:18:38.564Z,90.02
2023-01-15T01:19:40.013Z,89.59
2023-01-15T01:20:41.428Z,90.26
2023-01-15T01:21:43.955Z,90.23
2023-01-15T01:22:48.573Z,90.36
2023-01-15T01:23:50.126Z,89.44
2023-01-15T01:24:51.554Z,90.69
2023-01-15T01:25:52.960Z,89.96
2023-01-15T01:26:54.913Z,89.91
2023-01-15T01:27:56.270Z,89.50
2023-01-15T01:28:58.550Z,89.49
2023-01-15T01:29:59.989Z,89.84
2023-01-15T01:31:05.318Z,89.65
2023-01-15T01:32:06.803Z,89.64
2023-01-15T01:33:08.459Z,89.56
2023-01-15T01:34:11.161Z,88.31
2023-01-15T01:35:12.589Z,88.67
2023-01-15T01:36:14.021Z,89.40
2023-01-15T01:37:16.360Z,88.95
2023-01-15T01:38:17.844Z,90.28
2023-01-15T01:39:19.653Z,89.69
2023-01-15T01:40:21.181Z,89.53
2023-01-15T01:41:22.987Z,89.80
2023-01-15T01:42:25.845Z,89.12
2023-01-15T01:43:29.598Z,88.68
2023-01-15T01:44:33.943Z,88.45
2023-01-15T01:45:35.423Z,89.93
2023-01-15T01:46:36.911Z,89.68
2023-01-15T01:47:38.706Z,89.52
2023-01-15T01:48:40.196Z,89.74
2023-01-15T01:49:44.909Z,90.20
2023-01-15T01:50:48.671Z,90.03
2023-01-15T01:51:56.845Z,89.94
2023-01-15T01:53:02.480Z,89.81
2023-01-15T01:54:04.664Z,89.48
2023-01-15T01:55:07.623Z,89.82
2023-01-15T01:56:11.557Z,90.90
2023-01-15T01:57:15.706Z,90.79
2023-01-15T01:58:20.132Z,90.26
2023-01-15T01:59:24.140Z,90.90
2023-01-15T02:00:25.850Z,91.09
2023-01-15T02:01:27.387Z,90.79
2023-01-15T02:02:29.193Z,91.54
2023-01-15T02:03:35.420Z,92.06
2023-01-15T02:04:37.633Z,91.94
2023-01-15T02:05:43.705Z,92.22
2023-01-15T02:06:45.375Z,92.09
2023-01-15T02:07:46.788Z,92.13
2023-01-15T02:08:48.243Z,91.97
2023-01-15T02:09:49.647Z,92.43
2023-01-15T02:10:56.121Z,92.37
2023-01-15T02:12:09.033Z,92.24
2023-01-15T02:13:19.479Z,92.50
2023-01-15T02:14:29.942Z,93.21
2023-01-15T02:15:41.965Z,92.97
2023-01-15T02:16:50.522Z,93.51
2023-01-15T02:18:20.977Z,93.96
2023-01-15T02:20:05.640Z,93.74
2023-01-15T02:21:19.329Z,94.63
2023-01-15T02:22:45.231Z,94.80
2023-01-15T02:23:55.703Z,94.58
2023-01-15T02:25:08.122Z,94.01
2023-01-15T02:26:40.429Z,94.89
2023-01-15T02:27:55.394Z,95.17
2023-01-15T02:28:59.263Z,94.96
2023-01-15T02:30:24.664Z,95.06
2023-01-15T02:31:52.812Z,95.57
2023-01-15T02:32:59.362Z,95.14
2023-01-15T02:34:07.890Z,95.49
2023-01-15T02:35:22.973Z,96.28
2023-01-15T02:36:28.996Z,96.17
2023-01-15T02:37:33.988Z,96.65
2023-01-15T02:38:41.463Z,95.82
2023-01-15T02:39:47.409Z,95.58
2023-01-15T02:40:53.937Z,96.44
2023-01-15T02:41:57.089Z,96.69
2023-01-15T02:42:59.278Z,96.68
2023-01-15T02:44:02.834Z,96.09
2023-01-15T02:45:08.553Z,95.67
2023-01-15T02:46:12.024Z,96.93
2023-01-15T02:47:15.325Z,96.58
2023-01-15T02:48:20.416Z,96.78
2023-01-15T02:49:22.710Z,96.59
2023-01-15T02:50:35.649Z,96.47
2023-01-15T02:51:52.203Z,97.19
2023-01-15T02:52:59.580Z,96.89
2023-01-15T02:54:06.400Z,96.86
2023-01-15T02:55:20.321Z,97.12
2023-01-15T02:56:25.715Z,97.23
2023-01-15T02:57:30.522Z,97.64
2023-01-15T02:58:37.605Z,97.14
2023-01-15T02:59:44.041Z,96.94
2023-01-15T03:00:49.409Z,97.27
2023-01-15T03:01:58.566Z,97.07
2023-01-15T03:03:11.307Z,96.75
2023-01-15T03:04:23.141Z,97.25
2023-01-15T03:05:35.679Z,97.54
2023-01-15T03:06:50.299Z,97.28
2023-01-15T03:07:55.884Z,96.96
2023-01-15T03:08:57.382Z,97.45
2023-01-15T03:09:59.225Z,97.04
2023-01-15T03:11:09.436Z,97.14
2023-01-15T03:12:22.258Z,97.26
2023-01-15T03:13:43.319Z,97.63
2023-01-15T03:14:56.812Z,97.06
2023-01-15T03:16:26.351Z,97.54
2023-01-15T03:17:38.397Z,97.58
2023-01-15T03:18:53.372Z,97.49
2023-01-15T03:20:02.445Z,97.27
2023-01-15T03:21:08.069Z,97.86
2023-01-15T03:22:21.633Z,97.14
2023-01-15T03:23:25.237Z,97.64
2023-01-15T03:24:47.642Z,96.95
2023-01-15T03:25:50.576Z,96.96
2023-01-15T03:26:53.639Z,96.70
2023-01-15T03:27:59.697Z,96.73
2023-01-15T03:29:03.538Z,97.66
2023-01-15T03:30:17.287Z,96.94
2023-01-15T03:31:18.831Z,97.55
2023-01-15T03:32:22.551Z,97.54
2023-01-15T03:33:24.094Z,97.28
2023-01-15T03:34:31.294Z,97.12
2023-01-15T03:36:11.264Z,97.29
2023-01-15T03:37:13.865Z,97.13
2023-01-15T03:38:22.309Z,97.33
2023-01-15T03:39:23.755Z,98.05
2023-01-15T03:40:25.381Z,97.60
2023-01-15T03:41:55.837Z,97.34
2023-01-15T03:43:23.423Z,97.71
2023-01-15T03:44:40.617Z,96.91
2023-01-15T03:45:43.771Z,97.84
2023-01-15T03:47:04.467Z,97.22
2023-01-15T03:48:20.691Z,98.19
2023-01-15T03:49:51.404Z,98.28
2023-01-15T03:51:18.403Z,98.30
2023-01-15T03:52:31.485Z,97.78
2023-01-15T03:53:41.966Z,97.38
2023-01-15T03:55:04.744Z,97.83
2023-01-15T03:56:29.846Z,97.72
2023-01-15T03:57:53.348Z,98.38
2023-01-15T03:59:03.573Z,97.91
2023-01-15T04:00:15.672Z,98.06
2023-01-15T04:01:22.741Z,98.21
2023-01-15T04:02:26.612Z,98.32
2023-01-15T04:03:30.271Z,98.47
2023-01-15T04:04:33.078Z,98.06
2023-01-15T04:05:36.953Z,98.04
2023-01-15T04:06:41.973Z,97.56
2023-01-15T04:07:44.705Z,98.36
2023-01-15T04:08:47.777Z,97.95
2023-01-15T04:09:49.317Z,98.11
2023-01-15T04:10:58.879Z,98.16
2023-01-15T04:12:01.304Z,97.77
2023-01-15T04:13:02.822Z,97.26
2023-01-15T04:14:04.563Z,97.69
2023-01-15T04:15:06.587Z,98.44
2023-01-15T04:16:08.559Z,97.69
2023-01-15T04:17:10.584Z,98.42
2023-01-15T04:18:12.014Z,98.19
2023-01-15T04:19:13.593Z,98.57
2023-01-15T04:20:15.269Z,97.57
2023-01-15T04:21:16.700Z,98.41
2023-01-15T04:22:18.137Z,96.76
2023-01-15T04:23:19.590Z,95.45
2023-01-15T04:24:21.124Z,95.08
2023-01-15T04:25:22.557Z,94.44
2023-01-15T04:26:24.050Z,94.58
2023-01-15T04:27:27.209Z,94.65
2023-01-15T04:28:28.612Z,96.00
2023-01-15T04:29:30.043Z,94.62
2023-01-15T04:30:31.455Z,92.43
2023-01-15T04:31:33.464Z,92.22
2023-01-15T04:32:34.762Z,94.16
2023-01-15T04:33:36.707Z,92.15
2023-01-15T04:34:38.183Z,92.79
2023-01-15T04:35:39.673Z,92.70
2023-01-15T04:36:42.545Z,93.74
2023-01-15T04:37:43.992Z,93.67
2023-01-15T04:38:45.443Z,93.54
2023-01-15T04:39:47.034Z,93.14
2023-01-15T04:41:06.983Z,92.68
2023-01-15T04:42:31.799Z,95.04
2023-01-15T04:43:51.666Z,92.92
2023-01-15T04:44:53.072Z,91.67
2023-01-15T04:45:54.547Z,92.79
2023-01-15T04:46:57.529Z,93.40
2023-01-15T04:47:58.977Z,92.40
2023-01-15T04:49:00.412Z,91.63
2023-01-15T04:50:01.907Z,92.03
2023-01-15T04:51:04.601Z,92.71
2023-01-15T04:52:06.501Z,92.98
2023-01-15T04:53:07.927Z,91.30
2023-01-15T04:54:11.277Z,91.91
2023-01-15T04:55:12.894Z,91.15
2023-01-15T04:56:14.290Z,91.60
2023-01-15T04:57:15.713Z,90.13
2023-01-15T04:58:17.109Z,92.35
2023-01-15T04:59:21.069Z,90.69
2023-01-15T05:00:23.157Z,91.82
2023-01-15T05:01:24.628Z,92.73
2023-01-15T05:02:26.162Z,90.37
2023-01-15T05:03:31.244Z,88.84
2023-01-15T05:04:33.381Z,90.98
2023-01-15T05:05:34.810Z,88.06
2023-01-15T05:06:36.633Z,90.65
2023-01-15T05:07:38.065Z,90.95
2023-01-15T05:08:39.787Z,90.83
2023-01-15T05:09:41.210Z,90.09
2023-01-15T05:10:42.598Z,91.87
2023-01-15T05:11:44.055Z,90.93
2023-01-15T05:12:45.457Z,92.58
2023-01-15T05:13:46.864Z,90.99
2023-01-15T05:14:48.445Z,91.18
2023-01-15T05:15:49.873Z,92.39
2023-01-15T05:16:51.366Z,91.08
2023-01-15T05:17:52.755Z,91.83
2023-01-15T05:18:57.924Z,90.82
2023-01-15T05:19:59.334Z,90.61
2023-01-15T05:21:00.786Z,90.84
2023-01-15T05:22:02.202Z,91.93
2023-01-15T05:23:03.591Z,91.57
2023-01-15T05:24:08.613Z,92.61
2023-01-15T05:25:10.104Z,92.37
2023-01-15T05:26:11.744Z,92.05
2023-01-15T05:27:13.178Z,92.42
2023-01-15T05:28:14.561Z,92.12
2023-01-15T05:29:15.993Z,93.50
2023-01-15T05:30:17.792Z,91.52
2023-01-15T05:31:19.636Z,91.73
2023-01-15T05:32:21.110Z,92.44
2023-01-15T05:33:22.527Z,92.42
2023-01-15T05:34:23.941Z,90.46
2023-01-15T05:35:25.337Z,92.12
2023-01-15T05:36:30.325Z,93.12
2023-01-15T05:37:31.777Z,94.09
2023-01-15T05:38:33.847Z,92.41
2023-01-15T05:39:35.237Z,94.74
2023-01-15T05:40:36.678Z,92.20
2023-01-15T05:41:50.243Z,93.67
2023-01-15T05:42:51.791Z,93.51
2023-01-15T05:43:53.359Z,93.19
2023-01-15T05:44:54.852Z,93.23
2023-01-15T05:45:56.298Z,94.61
2023-01-15T05:47:00.239Z,94.87
2023-01-15T05:48:01.694Z,95.04
2023-01-15T05:49:07.001Z,92.90
2023-01-15T05:50:09.320Z,93.65
2023-01-15T05:51:10.723Z,94.80
2023-01-15T05:52:12.257Z,94.54
2023-01-15T05:53:13.648Z,95.47
2023-01-15T05:54:17.710Z,94.61
2023-01-15T05:55:19.182Z,95.21
2023-01-15T05:56:20.662Z,92.85
2023-01-15T05:57:22.075Z,93.83
2023-01-15T05:58:23.488Z,92.96
2023-01-15T05:59:27.336Z,93.68
2023-01-15T06:00:30.442Z,94.00
2023-01-15T06:01:35.753Z,94.34
2023-01-15T06:02:37.207Z,94.03
2023-01-15T06:03:38.724Z,93.27
2023-01-15T06:04:40.179Z,94.90
2023-01-15T06:05:41.654Z,95.61
2023-01-15T06:06:43.689Z,93.83
2023-01-15T06:07:44.977Z,93.14
2023-01-15T06:08:46.876Z,93.48
2023-01-15T06:09:48.264Z,94.72
2023-01-15T06:10:50.535Z,95.40
2023-01-15T06:11:53.597Z,93.33
2023-01-15T06:12:55.048Z,94.55
2023-01-15T06:13:56.537Z,95.90
2023-01-15T06:14:57.946Z,95.79
2023-01-15T06:16:00.226Z,95.63
2023-01-15T06:17:01.848Z,95.93
2023-01-15T06:18:03.440Z,95.85
2023-01-15T06:19:06.651Z,95.96
2023-01-15T06:20:08.879Z,96.90
2023-01-15T06:21:12.376Z,96.02
2023-01-15T06:22:13.748Z,96.61
2023-01-15T06:23:17.934Z,95.46
2023-01-15T06:24:20.624Z,95.83
2023-01-15T06:25:22.291Z,96.06
2023-01-15T06:26:24.119Z,95.03
2023-01-15T06:27:25.520Z,95.08
2023-01-15T06:28:27.392Z,95.75
2023-01-15T06:29:28.831Z,94.98
2023-01-15T06:30:30.430Z,96.38
2023-01-15T06:31:32.514Z,96.27
2023-01-15T06:32:33.973Z,96.71
2023-01-15T06:33:36.187Z,96.43
2023-01-15T06:34:37.658Z,95.94
2023-01-15T06:35:39.089Z,96.15
2023-01-15T06:36:40.533Z,95.98
2023-01-15T06:37:41.959Z,95.67
2023-01-15T06:38:44.761Z,94.97
2023-01-15T06:39:46.158Z,96.22
2023-01-15T06:40:47.652Z,96.13
2023-01-15T06:42:07.474Z,95.65
2023-01-15T06:43:29.222Z,95.22
2023-01-15T06:44:49.085Z,94.79
2023-01-15T06:46:25.846Z,94.64
2023-01-15T06:47:27.357Z,95.47
2023-01-15T06:48:28.795Z,95.77
2023-01-15T06:49:31.251Z,95.30
2023-01-15T06:50:32.705Z,95.77
2023-01-15T06:51:34.167Z,95.17
2023-01-15T06:52:35.631Z,96.43
2023-01-15T06:53:37.058Z,96.18
2023-01-15T06:54:38.534Z,96.10
2023-01-15T06:55:39.948Z,96.38
2023-01-15T06:56:41.385Z,96.53
2023-01-15T06:57:42.848Z,96.57
2023-01-15T06:58:44.459Z,96.91
2023-01-15T06:59:46.402Z,97.01
2023-01-15T07:00:55.934Z,96.52
2023-01-15T07:01:57.664Z,96.80
2023-01-15T07:03:02.791Z,96.81
2023-01-15T07:04:04.572Z,96.94
2023-01-15T07:05:06.269Z,97.01
2023-01-15T07:06:09.239Z,97.12
2023-01-15T07:07:10.638Z,96.89
2023-01-15T07:08:12.087Z,97.30
2023-01-15T07:09:13.599Z,96.61
2023-01-15T07:10:14.992Z,96.08
2023-01-15T07:11:17.655Z,96.38
2023-01-15T07:12:19.505Z,96.54
2023-01-15T07:13:20.955Z,96.73
2023-01-15T07:14:25.292Z,96.51
2023-01-15T07:15:26.781Z,96.10
2023-01-15T07:16:28.242Z,96.73
2023-01-15T07:17:29.789Z,96.42
2023-01-15T07:18:33.278Z,96.00
2023-01-15T07:19:34.678Z,96.72
2023-01-15T07:20:36.140Z,95.71
2023-01-15T07:21:37.618Z,96.10
2023-01-15T07:22:39.035Z,96.24
2023-01-15T07:23:40.448Z,96.46
2023-01-15T07:24:41.893Z,96.48
2023-01-15T07:25:43.335Z,96.03
2023-01-15T07:26:45.524Z,96.36
2023-01-15T07:27:48.270Z,95.88
2023-01-15T07:28:50.159Z,97.15
2023-01-15T07:29:52.315Z,96.83
2023-01-15T07:30:58.531Z,96.45
2023-01-15T07:32:00.195Z,96.81
2023-01-15T07:33:01.607Z,95.96
2023-01-15T07:34:03.336Z,96.51
2023-01-15T07:35:05.151Z,96.46
2023-01-15T07:36:06.838Z,96.54
2023-01-15T07:37:08.244Z,96.95
2023-01-15T07:38:09.694Z,96.92
2023-01-15T07:39:11.958Z,96.68
2023-01-15T07:40:13.429Z,96.08
2023-01-15T07:41:33.644Z,95.91
2023-01-15T07:42:53.411Z,96.85
2023-01-15T07:44:13.139Z,95.96
2023-01-15T07:45:32.858Z,95.89
2023-01-15T07:46:52.666Z,96.67
2023-01-15T07:48:13.111Z,96.59
2023-01-15T07:49:34.144Z,96.40
2023-01-15T07:50:36.723Z,96.66
2023-01-15T07:51:38.140Z,96.02
2023-01-15T07:52:39.587Z,95.86
2023-01-15T07:53:41.005Z,96.31
2023-01-15T07:54:42.897Z,96.07
2023-01-15T07:55:44.333Z,96.20
2023-01-15T07:56:45.876Z,96.28
2023-01-15T07:57:47.314Z,96.32
2023-01-15T07:58:50.138Z,96.11
2023-01-15T07:59:51.698Z,96.83
2023-01-15T08:00:53.435Z,96.88
2023-01-15T08:01:55.051Z,97.17
2023-01-15T08:02:56.513Z,97.25
2023-01-15T08:03:57.948Z,96.38
2023-01-15T08:04:59.371Z,96.74
2023-01-15T08:06:00.859Z,95.52
2023-01-15T08:07:03.809Z,96.34
2023-01-15T08:08:05.441Z,96.42
2023-01-15T08:09:06.861Z,96.31
2023-01-15T08:10:10.639Z,95.52
2023-01-15T08:11:30.606Z,95.89
2023-01-15T08:12:50.260Z,96.44
2023-01-15T08:14:23.792Z,96.00
2023-01-15T08:15:25.782Z,95.44
2023-01-15T08:16:27.225Z,95.32
2023-01-15T08:17:28.672Z,95.25
2023-01-15T08:18:30.141Z,95.79
2023-01-15T08:19:31.664Z,95.42
2023-01-15T08:20:34.589Z,95.37
2023-01-15T08:21:36.003Z,95.80
2023-01-15T08:22:38.571Z,95.80
2023-01-15T08:23:40.050Z,96.06
2023-01-15T08:24:41.472Z,95.69
2023-01-15T08:25:42.894Z,94.89
2023-01-15T08:26:44.314Z,94.65
2023-01-15T08:27:46.251Z,95.60
2023-01-15T08:28:47.623Z,95.87
2023-01-15T08:29:49.143Z,95.84
2023-01-15T08:30:50.572Z,95.89
2023-01-15T08:31:52.048Z,95.86
2023-01-15T08:32:59.269Z,95.22
2023-01-15T08:34:00.670Z,96.03
2023-01-15T08:35:02.155Z,95.67
2023-01-15T08:36:04.000Z,95.36
2023-01-15T08:37:05.478Z,94.80
2023-01-15T08:38:07.763Z,94.96
2023-01-15T08:39:10.393Z,95.65
2023-01-15T08:40:14.580Z,93.71
2023-01-15T08:41:16.221Z,93.73
2023-01-15T08:42:17.628Z,94.42
2023-01-15T08:43:19.051Z,95.39
2023-01-15T08:44:21.541Z,94.40
2023-01-15T08:45:22.994Z,93.54
2023-01-15T08:46:24.394Z,93.99
2023-01-15T08:47:25.791Z,92.45
2023-01-15T08:48:28.875Z,93.08
2023-01-15T08:49:30.402Z,93.12
2023-01-15T08:50:31.855Z,91.60
2023-01-15T08:51:33.314Z,92.95
2023-01-15T08:52:34.802Z,92.91
2023-01-15T08:53:38.379Z,93.65
2023-01-15T08:54:42.031Z,94.74
2023-01-15T08:55:43.627Z,94.44
2023-01-15T08:56:45.862Z,93.19
2023-01-15T08:57:47.632Z,93.42
2023-01-15T08:58:51.747Z,92.71
2023-01-15T08:59:53.179Z,91.00
2023-01-15T09:00:54.628Z,92.15
2023-01-15T09:01:56.204Z,92.58
2023-01-15T09:02:58.018Z,92.24
2023-01-15T09:03:59.763Z,92.54
2023-01-15T09:05:01.255Z,92.53
2023-01-15T09:06:03.223Z,92.28
2023-01-15T09:07:04.686Z,92.20
2023-01-15T09:08:07.300Z,91.48
2023-01-15T09:09:09.580Z,92.43
2023-01-15T09:10:11.171Z,92.38
2023-01-15T09:11:13.808Z,92.42
2023-01-15T09:12:15.578Z,91.94
2023-01-15T09:13:17.239Z,92.67
2023-01-15T09:15:00.072Z,93.04
2023-01-15T09:15:40.133Z,92.62
2023-01-15T09:16:41.980Z,92.53
2023-01-15T09:17:43.413Z,91.81
2023-01-15T09:18:44.844Z,92.35
2023-01-15T09:19:46.310Z,91.62
2023-01-15T09:20:48.105Z,91.82
2023-01-15T09:21:49.536Z,91.44
2023-01-15T09:22:51.596Z,91.07
2023-01-15T09:23:52.923Z,93.09
2023-01-15T09:24:54.313Z,92.81
2023-01-15T09:26:01.070Z,90.88
2023-01-15T09:27:02.483Z,89.50
2023-01-15T09:28:04.085Z,90.59
2023-01-15T09:29:07.306Z,91.79
2023-01-15T09:30:14.239Z,92.61
2023-01-15T09:31:15.682Z,90.33
2023-01-15T09:32:17.151Z,90.00
2023-01-15T09:33:18.786Z,90.26
2023-01-15T09:34:20.318Z,91.07
2023-01-15T09:35:24.992Z,92.08
2023-01-15T09:36:29.312Z,91.12
2023-01-15T09:37:30.804Z,90.51
2023-01-15T09:38:34.380Z,91.39
2023-01-15T09:39:37.846Z,91.72
2023-01-15T09:40:57.441Z,91.59
2023-01-15T09:42:08.490Z,89.87
2023-01-15T09:43:24.129Z,91.55
2023-01-15T09:44:32.409Z,90.73
2023-01-15T09:45:36.410Z,89.43
2023-01-15T09:46:48.064Z,89.59
2023-01-15T09:48:11.738Z,88.15
2023-01-15T09:49:55.142Z,88.68
2023-01-15T09:50:59.483Z,88.66
2023-01-15T09:52:19.738Z,89.63
2023-01-15T09:53:24.106Z,87.79
2023-01-15T09:55:03.286Z,89.93
2023-01-15T09:56:05.351Z,90.16
2023-01-15T09:57:11.506Z,88.49
2023-01-15T09:58:16.871Z,89.87
2023-01-15T09:59:40.663Z,89.14
2023-01-15T10:00:52.353Z,85.14
2023-01-15T10:01:54.016Z,85.24
2023-01-15T10:03:06.821Z,88.08
2023-01-15T10:04:26.620Z,86.15
2023-01-15T10:05:35.939Z,85.17
2023-01-15T10:07:08.627Z,87.21
2023-01-15T10:08:15.269Z,86.61
2023-01-15T10:09:31.409Z,86.08
2023-01-15T10:10:52.372Z,86.60
2023-01-15T10:12:20.173Z,88.40
2023-01-15T10:13:35.479Z,86.79
2023-01-15T10:15:08.988Z,87.89
2023-01-15T10:16:13.403Z,85.23
2023-01-15T10:17:28.404Z,86.17
2023-01-15T10:18:30.013Z,86.71
2023-01-15T10:19:43.944Z,86.57
2023-01-15T10:20:54.629Z,87.35
2023-01-15T10:22:10.973Z,86.68
2023-01-15T10:23:32.759Z,85.92
2023-01-15T10:24:50.384Z,85.02
2023-01-15T10:25:58.028Z,84.67
2023-01-15T10:27:00.155Z,83.42
2023-01-15T10:28:13.394Z,84.33
2023-01-15T10:29:21.960Z,84.08
2023-01-15T10:30:47.632Z,84.48
2023-01-15T10:31:53.737Z,84.32
2023-01-15T10:33:03.122Z,82.33
2023-01-15T10:34:43.463Z,84.88
2023-01-15T10:35:53.542Z,82.89
2023-01-15T10:37:09.721Z,84.82
2023-01-15T10:38:19.892Z,84.92
2023-01-15T10:39:33.961Z,83.20
2023-01-15T10:40:35.270Z,84.56
2023-01-15T10:42:08.780Z,84.88
2023-01-15T10:43:19.191Z,85.02
2023-01-15T10:45:01.707Z,85.98
2023-01-15T10:46:14.025Z,85.50
2023-01-15T10:47:19.085Z,82.36
2023-01-15T10:48:32.511Z,82.95
2023-01-15T10:49:34.708Z,83.09
2023-01-15T10:50:36.952Z,83.53
2023-01-15T10:51:47.574Z,81.36
2023-01-15T10:53:17.721Z,81.19
2023-01-15T10:54:19.095Z,80.27
2023-01-15T10:55:32.430Z,83.69
2023-01-15T10:56:52.005Z,82.03
2023-01-15T10:58:10.213Z,83.83
2023-01-15T10:59:30.725Z,80.97
2023-01-15T11:00:32.261Z,81.63
2023-01-15T11:01:34.103Z,79.85
2023-01-15T11:02:43.062Z,78.24
2023-01-15T11:03:44.711Z,79.46
2023-01-15T11:04:46.199Z,78.43
2023-01-15T11:05:47.802Z,78.96
2023-01-15T11:06:49.413Z,82.71
2023-01-15T11:09:24.046Z,81.87
2023-01-15T11:10:25.523Z,79.56
2023-01-15T11:12:01.497Z,79.30
2023-01-15T11:13:36.950Z,78.87
2023-01-15T11:14:59.863Z,77.63
2023-01-15T11:16:20.215Z,79.17
2023-01-15T11:17:42.477Z,81.92
2023-01-15T11:19:04.760Z,78.52
2023-01-15T11:20:34.690Z,79.77
2023-01-15T11:21:42.367Z,77.47
2023-01-15T11:22:45.017Z,79.22
2023-01-15T11:23:47.913Z,77.04
2023-01-15T11:24:51.665Z,77.04
2023-01-15T11:25:56.762Z,80.16
2023-01-15T11:26:58.298Z,79.12
2023-01-15T11:28:02.433Z,79.03
2023-01-15T11:29:15.682Z,77.69
2023-01-15T11:30:39.733Z,76.53
2023-01-15T11:31:41.723Z,77.23
2023-01-15T11:32:43.061Z,78.15
2023-01-15T11:34:06.195Z,77.82
2023-01-15T11:35:10.821Z,75.86
2023-01-15T11:36:22.725Z,76.69
2023-01-15T11:37:24.243Z,79.71
2023-01-15T11:38:31.123Z,77.00
2023-01-15T11:39:33.030Z,80.62
2023-01-15T11:40:34.812Z,79.62
2023-01-15T11:41:54.610Z,77.18
2023-01-15T11:43:14.547Z,75.93
2023-01-15T11:44:36.209Z,78.20
2023-01-15T11:46:10.315Z,79.17
2023-01-15T11:47:36.861Z,75.41
2023-01-15T11:49:05.823Z,78.83
2023-01-15T11:50:38.881Z,78.44
2023-01-15T11:51:48.696Z,75.45
2023-01-15T11:52:55.583Z,76.40
2023-01-15T11:54:04.530Z,78.03
2023-01-15T11:55:17.964Z,80.82
2023-01-15T11:56:24.667Z,76.46
2023-01-15T11:57:30.167Z,77.20
2023-01-15T11:58:46.046Z,77.29
2023-01-15T11:59:50.584Z,75.95
2023-01-15T12:00:55.880Z,76.86
2023-01-15T12:02:03.978Z,75.79
2023-01-15T12:03:12.363Z,78.67
2023-01-15T12:04:30.702Z,77.17
2023-01-15T12:05:35.531Z,77.02
2023-01-15T12:06:40.837Z,74.69
2023-01-15T12:07:42.932Z,77.99
2023-01-15T12:08:53.469Z,76.25
2023-01-15T12:10:13.873Z,76.25
2023-01-15T12:11:33.300Z,77.17
2023-01-15T12:12:51.348Z,78.30
2023-01-15T12:14:15.772Z,76.55
2023-01-15T12:16:07.971Z,79.46
2023-01-15T12:17:12.012Z,74.91
2023-01-15T12:18:29.146Z,78.21
2023-01-15T12:19:52.553Z,76.54
2023-01-15T12:21:05.074Z,75.90
2023-01-15T12:22:06.433Z,75.02
2023-01-15T12:23:26.261Z,76.18
2023-01-15T12:24:52.174Z,77.78
2023-01-15T12:25:59.531Z,75.29
2023-01-15T12:27:27.149Z,78.19
2023-01-15T12:28:33.537Z,75.48
2023-01-15T12:29:43.333Z,76.82
2023-01-15T12:31:05.081Z,75.04
2023-01-15T12:32:19.496Z,75.73
2023-01-15T12:33:37.234Z,76.40
2023-01-15T12:34:50.963Z,75.99
2023-01-15T12:36:06.534Z,75.25
2023-01-15T12:37:20.827Z,76.34
2023-01-15T12:38:39.753Z,75.29
2023-01-15T12:39:50.662Z,74.85
2023-01-15T12:40:56.358Z,75.52
2023-01-15T12:42:20.666Z,77.70
2023-01-15T12:43:44.973Z,76.91
2023-01-15T12:45:09.910Z,77.08
2023-01-15T12:46:22.951Z,76.14
2023-01-15T12:47:37.035Z,75.66
2023-01-15T12:48:43.022Z,75.33
2023-01-15T12:49:53.156Z,77.24
2023-01-15T12:50:59.090Z,75.89
2023-01-15T12:52:08.532Z,75.43
2023-01-15T12:53:19.312Z,77.78
2023-01-15T12:54:31.257Z,77.47
2023-01-15T12:55:40.078Z,77.00
2023-01-15T12:56:41.460Z,77.34
2023-01-15T12:57:47.673Z,74.45
2023-01-15T12:58:52.156Z,77.81
2023-01-15T13:00:07.317Z,77.88
2023-01-15T13:01:21.783Z,77.18
2023-01-15T13:02:54.196Z,79.11
2023-01-15T13:03:55.565Z,75.74
2023-01-15T13:05:27.211Z,74.84
2023-01-15T13:06:29.202Z,75.82
2023-01-15T13:07:43.371Z,75.71
2023-01-15T13:09:11.064Z,74.50
2023-01-15T13:10:17.942Z,77.14
2023-01-15T13:11:19.386Z,75.62
2023-01-15T13:12:20.808Z,76.40
2023-01-15T13:13:25.356Z,75.83
2023-01-15T13:14:26.805Z,75.31
2023-01-15T13:15:37.432Z,76.14
2023-01-15T13:16:51.250Z,74.42
2023-01-15T13:18:09.531Z,75.45
2023-01-15T13:19:23.032Z,74.27
2023-01-15T13:20:42.870Z,72.98
2023-01-15T13:21:48.219Z,75.46
2023-01-15T13:23:07.687Z,74.29
2023-01-15T13:24:33.089Z,73.26
2023-01-15T13:25:56.901Z,75.43
2023-01-15T13:27:23.445Z,76.52
2023-01-15T13:28:51.989Z,75.41
2023-01-15T13:30:14.571Z,76.14
2023-01-15T13:31:31.387Z,75.22
2023-01-15T13:32:39.783Z,74.72
2023-01-15T13:33:46.436Z,74.67
2023-01-15T13:35:05.520Z,75.79
2023-01-15T13:36:30.381Z,74.02
2023-01-15T13:37:36.316Z,74.26
2023-01-15T13:38:45.874Z,76.24
2023-01-15T13:39:49.808Z,74.20
2023-01-15T13:40:55.302Z,77.63
2023-01-15T13:42:15.916Z,75.13
2023-01-15T13:43:41.145Z,76.02
2023-01-15T13:44:50.142Z,74.57
2023-01-15T13:45:51.894Z,76.38
2023-01-15T13:47:26.985Z,78.09
2023-01-15T13:48:34.576Z,77.59
2023-01-15T13:49:48.198Z,76.01
2023-01-15T13:50:55.185Z,74.77
2023-01-15T13:51:59.414Z,75.09
2023-01-15T13:53:12.844Z,75.88
2023-01-15T13:54:18.787Z,75.71
2023-01-15T13:55:36.375Z,76.99
2023-01-15T13:56:39.846Z,76.23
2023-01-15T13:57:42.694Z,75.49
2023-01-15T13:59:01.804Z,76.51
2023-01-15T14:00:29.242Z,76.36
2023-01-15T14:01:30.698Z,74.54
2023-01-15T14:02:36.475Z,75.71
2023-01-15T14:03:38.271Z,78.37
2023-01-15T14:04:39.814Z,74.81
2023-01-15T14:05:41.261Z,74.53
2023-01-15T14:06:44.060Z,74.79
2023-01-15T14:07:45.494Z,75.03
2023-01-15T14:08:46.948Z,75.34
2023-01-15T14:09:48.370Z,75.44
2023-01-15T14:10:49.903Z,75.60
2023-01-15T14:12:15.771Z,75.10
2023-01-15T14:13:23.296Z,74.71
2023-01-15T14:14:52.912Z,74.11
2023-01-15T14:16:06.826Z,77.11
2023-01-15T14:17:14.216Z,75.75
2023-01-15T14:18:57.175Z,75.28
2023-01-15T14:20:33.802Z,75.66
2023-01-15T14:21:53.641Z,78.46
2023-01-15T14:23:12.988Z,76.93
2023-01-15T14:24:46.505Z,75.34
2023-01-15T14:26:06.903Z,75.95
2023-01-15T14:27:44.395Z,77.09
2023-01-15T14:28:54.900Z,75.63